createdAt,value
2018-07-22T00:00:10.644Z,97.10
2018-07-22T00:02:39.724Z,97.00
2018-07-22T00:05:08.607Z,97.40
2018-07-22T00:07:37.512Z,98.30
2018-07-22T00:10:08.288Z,99.00
2018-07-22T00:12:38.958Z,99.60
2018-07-22T00:15:07.511Z,99.90
2018-07-22T00:17:36.072Z,99.00
2018-07-22T00:20:05.536Z,99.30
2018-07-22T00:22:34.051Z,99.90
2018-07-22T00:25:02.639Z,99.30
2018-07-22T00:27:31.145Z,98.90
2018-07-22T00:29:59.665Z,96.50
2018-07-22T00:32:28.237Z,96.90
2018-07-22T00:34:58.090Z,98.00
2018-07-22T00:37:26.767Z,99.90
2018-07-22T00:39:55.307Z,99.90
2018-07-22T00:42:25.297Z,99.90
2018-07-22T00:44:53.835Z,99.90
2018-07-22T00:47:22.381Z,99.90
2018-07-22T00:49:50.897Z,99.90
2018-07-22T00:52:19.419Z,99.90
2018-07-22T00:54:47.951Z,99.90
2018-07-22T00:57:16.476Z,99.90
2018-07-22T00:59:44.993Z,99.90
2018-07-22T01:02:13.544Z,99.90
2018-07-22T01:04:42.052Z,99.90
2018-07-22T01:07:11.712Z,99.90
2018-07-22T01:09:40.384Z,99.90
2018-07-22T01:12:08.905Z,99.90
2018-07-22T01:14:37.412Z,99.90
2018-07-22T01:17:07.294Z,99.90
2018-07-22T01:19:35.804Z,99.90
2018-07-22T01:22:04.369Z,99.90
2018-07-22T01:24:32.890Z,99.90
2018-07-22T01:27:01.409Z,99.90
2018-07-22T01:29:29.936Z,99.90
2018-07-22T01:31:58.471Z,99.90
2018-07-22T01:34:27.013Z,99.90
2018-07-22T01:36:55.508Z,99.90
2018-07-22T01:39:24.037Z,99.90
2018-07-22T01:41:54.342Z,99.90
2018-07-22T01:44:22.838Z,99.90
2018-07-22T01:46:51.475Z,99.90
2018-07-22T01:49:19.997Z,99.90
2018-07-22T01:51:48.514Z,99.90
2018-07-22T01:54:17.049Z,99.90
2018-07-22T01:56:45.598Z,99.90
2018-07-22T01:59:14.440Z,99.90
2018-07-22T02:01:43.061Z,99.90
2018-07-22T02:04:11.573Z,99.90
2018-07-22T02:06:40.182Z,99.90
2018-07-22T02:09:10.129Z,99.90
2018-07-22T02:11:38.896Z,99.90
2018-07-22T02:14:07.683Z,99.90
2018-07-22T02:16:36.394Z,99.90
2018-07-22T02:19:05.533Z,99.90
2018-07-22T02:21:34.467Z,99.90
2018-07-22T02:24:03.021Z,99.90
2018-07-22T02:26:32.013Z,99.90
2018-07-22T02:29:00.633Z,99.90
2018-07-22T02:31:30.159Z,99.90
2018-07-22T02:33:58.710Z,99.90
2018-07-22T02:36:27.459Z,99.90
2018-07-22T02:38:56.005Z,99.90
2018-07-22T02:41:25.129Z,99.90
2018-07-22T02:43:53.839Z,99.90
2018-07-22T02:46:22.398Z,99.90
2018-07-22T02:48:50.942Z,99.90
2018-07-22T02:51:19.875Z,99.90
2018-07-22T02:53:49.088Z,99.90
2018-07-22T02:56:17.602Z,99.90
2018-07-22T02:58:46.471Z,99.90
2018-07-22T03:01:15.005Z,99.90
2018-07-22T03:03:43.594Z,99.90
2018-07-22T03:06:12.468Z,99.90
2018-07-22T03:08:41.020Z,99.90
2018-07-22T03:11:09.727Z,99.90
2018-07-22T03:13:38.269Z,99.90
2018-07-22T03:16:07.246Z,99.90
2018-07-22T03:18:35.998Z,99.90
2018-07-22T03:21:04.529Z,99.90
2018-07-22T03:23:33.729Z,99.90
2018-07-22T03:27:31.430Z,99.90
2018-07-22T03:29:59.957Z,99.90
2018-07-22T03:32:28.589Z,99.90
2018-07-22T03:34:57.146Z,99.90
2018-07-22T03:37:25.716Z,99.90
2018-07-22T03:39:54.240Z,99.90
2018-07-22T03:42:22.808Z,99.90
2018-07-22T03:44:51.877Z,99.90
2018-07-22T03:47:20.651Z,99.90
2018-07-22T03:49:49.193Z,99.90
2018-07-22T03:52:17.752Z,99.90
2018-07-22T03:54:47.223Z,99.90
2018-07-22T03:57:15.773Z,99.90
2018-07-22T03:59:44.583Z,99.90
2018-07-22T04:02:13.114Z,99.90
2018-07-22T04:04:41.660Z,99.90
2018-07-22T04:07:10.718Z,99.90
2018-07-22T04:09:39.235Z,99.90
2018-07-22T04:12:08.295Z,99.90
2018-07-22T04:17:05.104Z,99.90
2018-07-22T04:19:34.536Z,99.90
2018-07-22T04:22:03.085Z,99.90
2018-07-22T04:24:31.601Z,99.90
2018-07-22T04:27:00.236Z,99.90
2018-07-22T04:29:29.297Z,99.90
2018-07-22T04:31:57.808Z,99.90
2018-07-22T04:34:26.457Z,99.90
2018-07-22T04:36:55.637Z,99.90
2018-07-22T04:39:24.184Z,99.90
2018-07-22T04:41:52.981Z,99.90
2018-07-22T04:44:21.578Z,99.90
2018-07-22T04:46:50.225Z,99.90
2018-07-22T04:49:18.766Z,99.90
2018-07-22T04:51:47.355Z,99.90
2018-07-22T04:54:15.868Z,99.90
2018-07-22T04:56:44.453Z,99.90
2018-07-22T04:59:13.016Z,99.90
2018-07-22T05:01:42.348Z,99.90
2018-07-22T05:06:39.078Z,99.90
2018-07-22T05:09:09.687Z,99.90
2018-07-22T05:11:38.486Z,99.90
2018-07-22T05:14:07.897Z,99.90
2018-07-22T05:16:36.649Z,99.90
2018-07-22T05:19:05.569Z,99.90
2018-07-22T05:21:34.173Z,99.90
2018-07-22T05:24:02.698Z,99.90
2018-07-22T05:26:31.223Z,99.90
2018-07-22T05:28:59.758Z,99.90
2018-07-22T05:31:28.365Z,99.30
2018-07-22T05:33:56.880Z,98.60
2018-07-22T05:36:25.435Z,96.50
2018-07-22T05:38:54.027Z,96.40
2018-07-22T05:41:22.834Z,95.70
2018-07-22T05:43:51.414Z,95.10
2018-07-22T05:46:19.950Z,93.80
2018-07-22T05:48:49.303Z,94.00
2018-07-22T05:51:17.948Z,91.40
2018-07-22T05:53:46.492Z,92.10
2018-07-22T05:56:15.022Z,90.50
2018-07-22T05:58:43.592Z,90.10
2018-07-22T06:01:12.126Z,89.80
2018-07-22T06:03:40.703Z,89.50
2018-07-22T06:06:09.308Z,89.40
2018-07-22T06:08:37.953Z,90.40
2018-07-22T06:11:06.736Z,87.00
2018-07-22T06:13:35.307Z,87.30
2018-07-22T06:16:03.856Z,89.00
2018-07-22T06:18:32.391Z,86.10
2018-07-22T06:21:01.072Z,87.10
2018-07-22T06:23:29.681Z,85.30
2018-07-22T06:25:58.196Z,87.20
2018-07-22T06:28:26.750Z,87.20
2018-07-22T06:30:55.249Z,86.60
2018-07-22T06:33:23.768Z,84.00
2018-07-22T06:35:52.348Z,84.50
2018-07-22T06:38:20.867Z,86.50
2018-07-22T06:40:49.360Z,85.30
2018-07-22T06:43:17.929Z,84.60
2018-07-22T06:45:46.422Z,82.40
2018-07-22T06:48:14.946Z,81.30
2018-07-22T06:50:43.488Z,78.70
2018-07-22T06:53:12.083Z,76.60
2018-07-22T06:55:40.626Z,73.70
2018-07-22T06:58:09.184Z,71.30
2018-07-22T07:00:37.798Z,67.60
2018-07-22T07:03:06.700Z,67.10
2018-07-22T07:05:35.267Z,60.90
2018-07-22T07:08:04.102Z,58.40
2018-07-22T07:10:32.683Z,55.40
2018-07-22T07:13:01.249Z,54.30
2018-07-22T07:15:29.753Z,53.30
2018-07-22T07:17:58.410Z,51.50
2018-07-22T07:20:27.077Z,52.70
2018-07-22T07:22:55.616Z,51.10
2018-07-22T07:25:24.287Z,50.30
2018-07-22T07:27:52.829Z,53.40
2018-07-22T07:30:21.462Z,51.40
2018-07-22T07:32:49.997Z,47.10
2018-07-22T07:35:18.533Z,49.70
2018-07-22T07:37:47.045Z,46.40
2018-07-22T07:40:15.616Z,43.90
2018-07-22T07:42:44.186Z,42.00
2018-07-22T07:46:41.920Z,42.10
2018-07-22T07:49:11.112Z,41.80
2018-07-22T07:51:39.730Z,41.10
2018-07-22T07:54:08.414Z,40.10
2018-07-22T07:56:36.973Z,38.40
2018-07-22T07:59:05.531Z,41.10
2018-07-22T08:04:02.340Z,39.70
2018-07-22T08:06:30.855Z,39.90
2018-07-22T08:08:59.410Z,44.00
2018-07-22T08:11:28.021Z,45.80
2018-07-22T08:13:56.543Z,45.40
2018-07-22T08:16:25.376Z,45.80
2018-07-22T08:18:56.438Z,46.60
2018-07-22T08:21:22.912Z,46.00
2018-07-22T08:23:51.423Z,44.60
2018-07-22T08:26:20.009Z,48.50
2018-07-22T08:29:28.933Z,48.50
2018-07-22T08:31:59.057Z,49.00
2018-07-22T08:34:27.568Z,46.00
2018-07-22T08:36:56.470Z,43.60
2018-07-22T08:39:27.272Z,43.30
2018-07-22T08:41:56.356Z,43.60
2018-07-22T08:44:24.987Z,44.70
2018-07-22T08:46:53.634Z,46.40
2018-07-22T08:49:22.241Z,48.90
2018-07-22T08:51:50.788Z,46.30
2018-07-22T08:54:20.177Z,42.20
2018-07-22T08:56:48.729Z,40.40
2018-07-22T08:59:17.261Z,39.90
2018-07-22T09:01:45.847Z,40.90
2018-07-22T09:04:14.533Z,39.70
2018-07-22T09:06:43.115Z,38.90
2018-07-22T09:09:12.645Z,39.90
2018-07-22T09:11:41.302Z,38.00
2018-07-22T09:14:10.502Z,39.70
2018-07-22T09:16:39.100Z,39.00
2018-07-22T09:19:07.725Z,39.70
2018-07-22T09:21:36.588Z,40.50
2018-07-22T09:24:05.195Z,37.50
2018-07-22T09:26:33.706Z,36.80
2018-07-22T09:29:02.321Z,34.00
2018-07-22T09:31:30.877Z,35.50
2018-07-22T09:33:59.454Z,34.20
2018-07-22T09:36:28.070Z,34.80
2018-07-22T09:38:56.539Z,31.80
2018-07-22T09:41:25.089Z,31.90
2018-07-22T09:43:53.628Z,31.40
2018-07-22T09:46:22.206Z,30.20
2018-07-22T09:48:50.715Z,33.30
2018-07-22T09:51:19.887Z,30.00
2018-07-22T09:53:48.482Z,31.80
2018-07-22T09:56:17.011Z,31.30
2018-07-22T09:58:45.531Z,32.00
2018-07-22T10:01:14.108Z,31.20
2018-07-22T10:03:42.677Z,29.50
2018-07-22T10:06:11.208Z,30.50
2018-07-22T10:08:40.629Z,30.30
2018-07-22T10:11:09.234Z,30.10
2018-07-22T10:13:38.519Z,28.90
2018-07-22T10:16:07.096Z,29.80
2018-07-22T10:18:35.608Z,30.40
2018-07-22T10:21:04.137Z,28.40
2018-07-22T10:23:32.723Z,28.70
2018-07-22T10:26:01.351Z,28.10
2018-07-22T10:28:29.876Z,28.90
2018-07-22T10:30:58.466Z,26.80
2018-07-22T10:33:27.000Z,27.10
2018-07-22T10:35:55.605Z,26.50
2018-07-22T10:38:24.090Z,26.10
2018-07-22T10:43:21.243Z,25.40
2018-07-22T10:45:50.854Z,27.30
2018-07-22T10:48:19.408Z,26.70
2018-07-22T10:50:49.575Z,26.60
2018-07-22T10:53:18.093Z,26.90
2018-07-22T10:55:46.594Z,26.10
2018-07-22T10:58:15.106Z,26.30
2018-07-22T11:00:44.821Z,26.20
2018-07-22T11:03:14.456Z,25.30
2018-07-22T11:08:11.188Z,24.70
2018-07-22T11:10:39.717Z,24.70
2018-07-22T11:13:08.249Z,22.40
2018-07-22T11:18:05.375Z,22.90
2018-07-22T11:20:33.901Z,22.10
2018-07-22T11:23:02.461Z,20.80
2018-07-22T11:25:31.097Z,21.50
2018-07-22T11:27:59.613Z,22.10
2018-07-22T11:30:28.169Z,23.70
2018-07-22T11:32:56.726Z,23.10
2018-07-22T11:35:25.264Z,24.00
2018-07-22T11:37:53.837Z,22.30
2018-07-22T11:40:22.367Z,22.00
2018-07-22T11:42:50.887Z,19.80
2018-07-22T11:45:19.414Z,19.50
2018-07-22T11:47:48.728Z,19.60
2018-07-22T11:50:17.252Z,22.30
2018-07-22T11:52:45.833Z,27.00
2018-07-22T11:55:14.399Z,28.40
2018-07-22T11:57:42.941Z,25.80
2018-07-22T12:00:11.506Z,21.00
2018-07-22T12:02:40.022Z,20.20
2018-07-22T12:05:08.561Z,20.00
2018-07-22T12:07:37.405Z,20.90
2018-07-22T12:10:06.041Z,25.80
2018-07-22T12:12:37.444Z,28.70
2018-07-22T12:15:06.073Z,30.40
2018-07-22T12:17:34.602Z,24.90
2018-07-22T12:20:04.018Z,22.70
2018-07-22T12:22:32.696Z,21.00
2018-07-22T12:25:01.221Z,19.90
2018-07-22T12:27:29.732Z,22.10
2018-07-22T12:29:58.644Z,26.30
2018-07-22T12:32:27.169Z,28.10
2018-07-22T12:34:55.685Z,29.30
2018-07-22T12:37:24.257Z,29.50
2018-07-22T12:39:53.379Z,30.50
2018-07-22T12:42:22.521Z,29.60
2018-07-22T12:44:53.091Z,28.60
2018-07-22T12:47:23.640Z,24.00
2018-07-22T12:49:52.479Z,23.00
2018-07-22T12:52:21.059Z,28.60
2018-07-22T12:54:49.568Z,30.00
2018-07-22T12:57:18.190Z,28.10
2018-07-22T12:59:46.763Z,27.60
2018-07-22T13:02:16.922Z,26.80
2018-07-22T13:04:45.481Z,25.70
2018-07-22T13:07:14.947Z,19.80
2018-07-22T13:09:43.660Z,19.40
2018-07-22T13:12:12.218Z,22.80
2018-07-22T13:14:40.984Z,21.60
2018-07-22T13:17:09.539Z,24.90
2018-07-22T13:19:38.104Z,25.60
2018-07-22T13:22:06.725Z,26.50
2018-07-22T13:24:35.275Z,25.20
2018-07-22T13:27:03.794Z,22.50
2018-07-22T13:29:32.344Z,22.50
2018-07-22T13:32:00.867Z,19.60
2018-07-22T13:36:57.683Z,19.70
2018-07-22T13:39:26.190Z,19.40
2018-07-22T13:41:54.705Z,21.40
2018-07-22T13:44:23.292Z,24.60
2018-07-22T13:46:51.853Z,25.30
2018-07-22T13:49:20.376Z,26.10
2018-07-22T13:51:49.106Z,25.50
2018-07-22T13:54:17.644Z,25.50
2018-07-22T13:56:46.240Z,25.80
2018-07-22T13:59:14.812Z,25.80
2018-07-22T14:01:43.355Z,26.90
2018-07-22T14:04:11.869Z,26.20
2018-07-22T14:06:40.674Z,26.30
2018-07-22T14:09:11.095Z,27.50
2018-07-22T14:11:39.674Z,28.50
2018-07-22T14:14:08.958Z,27.30
2018-07-22T14:16:37.682Z,27.80
2018-07-22T14:19:06.760Z,28.80
2018-07-22T14:21:35.370Z,28.60
2018-07-22T14:24:03.965Z,28.00
2018-07-22T14:26:32.503Z,28.40
2018-07-22T14:29:01.249Z,28.60
2018-07-22T14:31:29.806Z,28.80
2018-07-22T14:33:58.300Z,29.60
2018-07-22T14:36:27.096Z,28.40
2018-07-22T14:38:55.682Z,28.30
2018-07-22T14:41:25.557Z,29.00
2018-07-22T14:43:54.938Z,28.50
2018-07-22T14:46:23.456Z,29.30
2018-07-22T14:48:52.044Z,29.00
2018-07-22T14:51:20.930Z,28.90
2018-07-22T14:53:49.476Z,26.40
2018-07-22T14:58:46.259Z,25.00
2018-07-22T15:01:14.799Z,25.30
2018-07-22T15:03:44.055Z,26.40
2018-07-22T15:06:13.322Z,26.40
2018-07-22T15:08:42.203Z,26.60
2018-07-22T15:13:39.136Z,26.40
2018-07-22T15:16:08.288Z,23.70
2018-07-22T15:18:36.987Z,24.10
2018-07-22T15:21:05.692Z,24.10
2018-07-22T15:23:34.759Z,23.30
2018-07-22T15:26:03.877Z,22.50
2018-07-22T15:28:32.557Z,23.80
2018-07-22T15:31:02.853Z,23.40
2018-07-22T15:33:31.404Z,23.40
2018-07-22T15:36:00.878Z,27.90
2018-07-22T15:38:29.380Z,27.30
2018-07-22T15:40:57.875Z,28.70
2018-07-22T15:43:26.405Z,29.30
2018-07-22T15:45:54.910Z,28.00
2018-07-22T15:48:23.447Z,27.30
2018-07-22T15:50:52.029Z,26.80
2018-07-22T15:53:20.588Z,25.90
2018-07-22T15:55:49.205Z,25.00
2018-07-22T15:58:18.056Z,24.90
2018-07-22T16:00:46.604Z,26.80
2018-07-22T16:03:15.258Z,28.10
2018-07-22T16:05:43.912Z,28.40
2018-07-22T16:08:12.450Z,28.50
2018-07-22T16:10:40.978Z,29.60
2018-07-22T16:13:09.517Z,28.20
2018-07-22T16:15:38.106Z,26.60
2018-07-22T16:18:06.982Z,26.20
2018-07-22T16:20:35.545Z,26.00
2018-07-22T16:25:32.446Z,25.30
2018-07-22T16:28:01.010Z,26.00
2018-07-22T16:30:29.516Z,26.90
2018-07-22T16:32:58.027Z,27.10
2018-07-22T16:35:26.880Z,27.20
2018-07-22T16:37:55.505Z,29.30
2018-07-22T16:40:24.047Z,29.80
2018-07-22T16:42:52.868Z,30.10
2018-07-22T16:45:21.415Z,31.20
2018-07-22T16:47:50.931Z,31.50
2018-07-22T16:50:19.505Z,31.40
2018-07-22T16:52:48.040Z,31.30
2018-07-22T16:55:16.587Z,32.70
2018-07-22T16:57:45.166Z,33.50
2018-07-22T17:00:13.783Z,35.10
2018-07-22T17:02:42.310Z,36.00
2018-07-22T17:05:10.862Z,37.40
2018-07-22T17:07:39.511Z,36.90
2018-07-22T17:10:08.292Z,37.80
2018-07-22T17:12:36.929Z,38.80
2018-07-22T17:15:05.495Z,38.70
2018-07-22T17:17:34.050Z,38.80
2018-07-22T17:20:02.626Z,39.10
2018-07-22T17:22:31.182Z,39.20
2018-07-22T17:24:59.713Z,39.00
2018-07-22T17:27:28.325Z,39.80
2018-07-22T17:29:56.894Z,39.90
2018-07-22T17:32:25.890Z,40.00
2018-07-22T17:34:54.772Z,40.80
2018-07-22T17:37:23.296Z,40.80
2018-07-22T17:39:51.845Z,41.90
2018-07-22T17:42:20.384Z,41.70
2018-07-22T17:44:48.928Z,41.80
2018-07-22T17:47:17.473Z,41.80
2018-07-22T17:49:46.042Z,39.80
2018-07-22T17:52:14.563Z,39.80
2018-07-22T17:54:43.288Z,39.50
2018-07-22T17:57:11.896Z,38.90
2018-07-22T17:59:40.495Z,38.30
2018-07-22T18:02:09.083Z,38.60
2018-07-22T18:04:37.672Z,39.50
2018-07-22T18:07:06.234Z,40.20
2018-07-22T18:09:34.930Z,40.10
2018-07-22T18:12:03.595Z,40.30
2018-07-22T18:14:32.205Z,40.40
2018-07-22T18:17:00.771Z,40.70
2018-07-22T18:19:29.385Z,41.00
2018-07-22T18:21:58.867Z,41.70
2018-07-22T18:24:28.691Z,42.10
2018-07-22T18:26:58.097Z,42.50
2018-07-22T18:29:26.692Z,43.70
2018-07-22T18:31:55.371Z,43.30
2018-07-22T18:34:24.403Z,43.40
2018-07-22T18:36:52.921Z,44.60
2018-07-22T18:39:21.707Z,45.30
2018-07-22T18:44:18.614Z,46.20
2018-07-22T18:46:47.140Z,46.10
2018-07-22T18:49:15.704Z,46.70
2018-07-22T18:51:44.241Z,47.70
2018-07-22T18:54:12.934Z,47.60
2018-07-22T18:56:41.549Z,48.00
2018-07-22T18:59:10.234Z,49.00
2018-07-22T19:01:38.772Z,49.30
2018-07-22T19:04:08.176Z,50.10
2018-07-22T19:06:36.716Z,49.90
2018-07-22T19:09:07.608Z,51.30
2018-07-22T19:11:36.184Z,51.20
2018-07-22T19:14:04.737Z,51.10
2018-07-22T19:16:33.283Z,52.30
2018-07-22T19:19:01.889Z,53.20
2018-07-22T19:21:30.406Z,52.50
2018-07-22T19:26:27.406Z,52.10
2018-07-22T19:28:55.916Z,52.80
2018-07-22T19:31:24.484Z,52.10
2018-07-22T19:33:53.060Z,53.70
2018-07-22T19:36:21.584Z,55.00
2018-07-22T19:38:50.140Z,55.70
2018-07-22T19:41:18.666Z,56.20
2018-07-22T19:43:47.208Z,56.80
2018-07-22T19:46:15.756Z,57.20
2018-07-22T19:48:44.316Z,58.10
2018-07-22T19:51:12.834Z,60.20
2018-07-22T19:53:41.429Z,62.80
2018-07-22T19:56:11.980Z,63.80
2018-07-22T19:58:40.489Z,64.60
2018-07-22T20:01:09.037Z,62.40
2018-07-22T20:03:37.570Z,60.50
2018-07-22T20:08:34.350Z,61.50
2018-07-22T21:28:42.667Z,98.20
2018-07-22T21:31:11.265Z,97.00
2018-07-22T21:33:39.776Z,99.80
2018-07-22T21:36:09.087Z,99.90
2018-07-22T21:38:37.595Z,99.90
2018-07-22T21:41:06.109Z,99.90
2018-07-22T21:43:35.547Z,99.90
2018-07-22T21:46:04.100Z,99.90
2018-07-22T21:48:32.599Z,99.90
2018-07-22T21:51:01.785Z,99.90
2018-07-22T21:53:30.292Z,99.90
2018-07-22T21:55:58.831Z,99.90
2018-07-22T21:58:27.403Z,99.90
2018-07-22T22:00:55.954Z,99.90
2018-07-22T22:03:24.467Z,99.90
2018-07-22T22:05:53.174Z,99.90
2018-07-22T22:08:21.701Z,99.90
2018-07-22T22:10:50.297Z,99.90
2018-07-22T22:13:18.966Z,99.90
2018-07-22T22:15:47.497Z,99.90
2018-07-22T22:18:16.967Z,99.90
2018-07-22T22:20:45.601Z,99.90
2018-07-22T22:23:14.175Z,99.90
2018-07-22T22:25:42.818Z,99.90
2018-07-22T22:28:11.354Z,99.90
2018-07-22T22:33:08.121Z,99.90
2018-07-22T22:35:36.644Z,99.90
2018-07-22T22:38:05.166Z,99.90
2018-07-22T22:40:33.686Z,99.90
2018-07-22T22:43:02.210Z,99.90
2018-07-22T22:45:30.720Z,99.90
2018-07-22T22:47:59.212Z,99.90
2018-07-22T22:50:27.736Z,99.90
2018-07-22T22:52:56.282Z,99.90
2018-07-22T22:55:24.815Z,99.90
2018-07-22T22:58:04.542Z,99.90
2018-07-22T23:00:33.069Z,99.90
2018-07-22T23:03:01.574Z,99.90
2018-07-22T23:05:30.097Z,99.90
2018-07-22T23:07:58.622Z,99.90
2018-07-22T23:10:27.117Z,99.90
2018-07-22T23:12:55.659Z,99.90
2018-07-22T23:15:24.192Z,99.90
2018-07-22T23:17:53.450Z,99.90
2018-07-22T23:20:21.992Z,99.90
2018-07-22T23:22:50.512Z,99.90
2018-07-22T23:25:19.137Z,99.90
2018-07-22T23:27:47.691Z,99.90
2018-07-22T23:30:16.404Z,99.90
2018-07-22T23:32:44.955Z,99.90
2018-07-22T23:35:13.504Z,99.90
2018-07-22T23:37:42.033Z,99.90
2018-07-22T23:40:10.529Z,99.90
2018-07-22T23:42:39.060Z,99.90
2018-07-22T23:45:07.599Z,99.90
2018-07-22T23:47:36.119Z,99.90
2018-07-22T23:50:04.792Z,99.90
2018-07-22T23:52:33.323Z,99.90
2018-07-22T23:55:01.840Z,99.90
2018-07-22T23:57:30.408Z,99.90
2018-07-22T23:59:58.919Z,99.90
